createdAt,value
2023-04-15T00:00:07.832Z,10.62
2023-04-15T00:01:07.864Z,10.62
2023-04-15T00:02:07.953Z,10.54
2023-04-15T00:03:07.880Z,10.47
2023-04-15T00:04:07.880Z,10.46
2023-04-15T00:05:07.882Z,10.12
2023-04-15T00:06:07.827Z,10.03
2023-04-15T00:07:07.792Z,10.13
2023-04-15T00:08:07.823Z,10.23
2023-04-15T00:09:07.860Z,10.29
2023-04-15T00:10:07.988Z,10.39
2023-04-15T00:11:08.042Z,10.46
2023-04-15T00:12:08.048Z,10.49
2023-04-15T00:13:08.084Z,10.55
2023-04-15T00:14:08.105Z,10.51
2023-04-15T00:15:08.513Z,10.39
2023-04-15T00:16:08.251Z,10.28
2023-04-15T00:17:08.281Z,10.04
2023-04-15T00:18:08.397Z,9.90
2023-04-15T00:19:08.579Z,9.79
2023-04-15T00:20:08.372Z,9.74
2023-04-15T00:21:08.404Z,9.45
2023-04-15T00:22:08.472Z,9.17
2023-04-15T00:23:08.518Z,9.19
2023-04-15T00:24:08.595Z,9.25
2023-04-15T00:25:08.638Z,9.33
2023-04-15T00:26:08.702Z,9.38
2023-04-15T00:27:08.715Z,9.57
2023-04-15T00:28:08.778Z,9.73
2023-04-15T00:29:08.830Z,9.86
2023-04-15T00:30:08.872Z,9.96
2023-04-15T00:31:08.949Z,10.04
2023-04-15T00:32:08.952Z,10.16
2023-04-15T00:33:09.005Z,10.20
2023-04-15T00:34:09.011Z,10.27
2023-04-15T00:35:09.010Z,10.32
2023-04-15T00:36:09.024Z,10.34
2023-04-15T00:37:09.048Z,10.39
2023-04-15T00:38:09.135Z,10.41
2023-04-15T00:39:09.252Z,10.00
2023-04-15T00:40:09.372Z,9.61
2023-04-15T00:41:09.471Z,9.38
2023-04-15T00:42:09.566Z,9.20
2023-04-15T00:43:09.654Z,9.02
2023-04-15T00:44:09.710Z,8.91
2023-04-15T00:45:09.809Z,8.87
2023-04-15T00:46:09.928Z,8.91
2023-04-15T00:47:09.921Z,9.03
2023-04-15T00:48:09.969Z,9.21
2023-04-15T00:49:10.031Z,9.16
2023-04-15T00:50:10.097Z,9.07
2023-04-15T00:51:10.193Z,9.15
2023-04-15T00:52:10.207Z,9.39
2023-04-15T00:53:10.268Z,9.39
2023-04-15T00:54:10.340Z,9.22
2023-04-15T00:55:10.325Z,9.18
2023-04-15T00:56:10.407Z,9.08
2023-04-15T00:57:10.497Z,9.00
2023-04-15T00:58:10.503Z,8.92
2023-04-15T00:59:10.552Z,8.95
2023-04-15T01:00:10.626Z,8.95
2023-04-15T01:01:10.785Z,8.92
2023-04-15T01:02:10.809Z,8.89
2023-04-15T01:03:10.993Z,8.82
2023-04-15T01:04:11.015Z,8.77
2023-04-15T01:05:10.913Z,8.93
2023-04-15T01:06:11.067Z,8.89
2023-04-15T01:07:11.094Z,8.99
2023-04-15T01:08:11.102Z,9.21
2023-04-15T01:09:11.168Z,9.14
2023-04-15T01:10:11.224Z,9.07
2023-04-15T01:11:11.244Z,9.18
2023-04-15T01:12:11.347Z,9.34
2023-04-15T01:13:11.327Z,9.50
2023-04-15T01:14:11.436Z,9.40
2023-04-15T01:15:11.457Z,9.27
2023-04-15T01:16:11.521Z,9.12
2023-04-15T01:17:11.562Z,9.05
2023-04-15T01:18:11.587Z,9.04
2023-04-15T01:19:11.608Z,9.10
2023-04-15T01:20:11.704Z,9.03
2023-04-15T01:21:11.770Z,9.02
2023-04-15T01:22:11.801Z,9.00
2023-04-15T01:23:11.763Z,9.03
2023-04-15T01:24:12.161Z,9.12
2023-04-15T01:25:11.929Z,9.25
2023-04-15T01:26:12.016Z,9.45
2023-04-15T01:27:12.038Z,9.62
2023-04-15T01:28:12.069Z,9.73
2023-04-15T01:29:12.128Z,9.60
2023-04-15T01:30:12.174Z,9.68
2023-04-15T01:31:12.372Z,9.42
2023-04-15T01:32:12.288Z,9.23
2023-04-15T01:33:12.321Z,9.14
2023-04-15T01:34:12.372Z,8.98
2023-04-15T01:35:12.399Z,9.00
2023-04-15T01:36:12.517Z,9.20
2023-04-15T01:37:12.517Z,9.29
2023-04-15T01:38:12.557Z,9.34
2023-04-15T01:39:12.612Z,9.32
2023-04-15T01:40:12.656Z,9.44
2023-04-15T01:41:12.684Z,9.62
2023-04-15T01:42:12.677Z,9.75
2023-04-15T01:43:12.760Z,9.88
2023-04-15T01:44:12.860Z,9.95
2023-04-15T01:45:12.867Z,10.00
2023-04-15T01:46:12.914Z,10.01
2023-04-15T01:47:12.907Z,10.08
2023-04-15T01:48:13.191Z,10.21
2023-04-15T01:49:12.918Z,10.21
2023-04-15T01:50:12.937Z,10.24
2023-04-15T01:51:12.948Z,10.05
2023-04-15T01:52:12.924Z,9.82
2023-04-15T01:53:13.043Z,9.76
2023-04-15T01:54:13.088Z,9.48
2023-04-15T01:55:13.122Z,9.31
2023-04-15T01:56:14.763Z,9.49
2023-04-15T01:57:13.203Z,9.62
2023-04-15T01:58:13.188Z,9.75
2023-04-15T01:59:13.187Z,9.84
2023-04-15T02:00:13.154Z,9.93
2023-04-15T02:01:13.179Z,10.05
2023-04-15T02:02:13.149Z,10.10
2023-04-15T02:03:13.217Z,10.16
2023-04-15T02:04:13.133Z,10.20
2023-04-15T02:05:13.120Z,10.24
2023-04-15T02:06:13.153Z,10.15
2023-04-15T02:07:13.085Z,10.03
2023-04-15T02:08:13.091Z,10.07
2023-04-15T02:09:13.143Z,10.07
2023-04-15T02:10:13.101Z,10.00
2023-04-15T02:11:13.091Z,9.96
2023-04-15T02:12:13.085Z,9.89
2023-04-15T02:13:13.093Z,9.88
2023-04-15T02:14:13.050Z,9.76
2023-04-15T02:15:13.087Z,9.80
2023-04-15T02:16:13.092Z,9.86
2023-04-15T02:17:13.075Z,9.97
2023-04-15T02:18:13.036Z,10.06
2023-04-15T02:19:13.026Z,10.13
2023-04-15T02:20:13.056Z,10.19
2023-04-15T02:21:13.048Z,10.25
2023-04-15T02:22:13.001Z,10.30
2023-04-15T02:23:13.056Z,10.06
2023-04-15T02:24:12.986Z,9.75
2023-04-15T02:25:12.976Z,9.55
2023-04-15T02:26:13.015Z,9.37
2023-04-15T02:27:12.989Z,9.19
2023-04-15T02:28:12.993Z,9.10
2023-04-15T02:29:13.005Z,9.18
2023-04-15T02:30:12.963Z,9.42
2023-04-15T02:31:12.997Z,9.64
2023-04-15T02:32:13.161Z,9.82
2023-04-15T02:33:12.951Z,9.99
2023-04-15T02:34:12.961Z,10.11
2023-04-15T02:35:12.971Z,10.16
2023-04-15T02:36:12.938Z,10.20
2023-04-15T02:37:12.935Z,10.28
2023-04-15T02:38:12.908Z,10.36
2023-04-15T02:39:12.994Z,10.44
2023-04-15T02:40:13.011Z,10.51
2023-04-15T02:41:13.092Z,10.41
2023-04-15T02:42:13.109Z,10.38
2023-04-15T02:43:13.180Z,10.40
2023-04-15T02:44:13.172Z,10.45
2023-04-15T02:45:13.270Z,10.43
2023-04-15T02:46:13.360Z,10.43
2023-04-15T02:47:13.321Z,10.41
2023-04-15T02:48:13.367Z,10.43
2023-04-15T02:49:13.427Z,10.42
2023-04-15T02:50:13.467Z,10.42
2023-04-15T02:51:13.606Z,10.40
2023-04-15T02:52:13.569Z,10.43
2023-04-15T02:53:13.634Z,10.44
2023-04-15T02:54:13.685Z,10.48
2023-04-15T02:55:13.745Z,10.49
2023-04-15T02:56:13.802Z,10.33
2023-04-15T02:57:13.830Z,10.24
2023-04-15T02:58:13.933Z,10.18
2023-04-15T02:59:13.866Z,10.15
2023-04-15T03:00:13.875Z,10.20
2023-04-15T03:01:13.991Z,10.27
2023-04-15T03:02:14.047Z,10.35
2023-04-15T03:03:14.218Z,10.35
2023-04-15T03:04:14.067Z,10.24
2023-04-15T03:05:14.084Z,10.30
2023-04-15T03:06:14.142Z,10.37
2023-04-15T03:07:14.192Z,10.42
2023-04-15T03:08:14.204Z,10.45
2023-04-15T03:09:14.301Z,10.41
2023-04-15T03:10:14.318Z,10.36
2023-04-15T03:11:14.372Z,10.37
2023-04-15T03:12:14.429Z,10.39
2023-04-15T03:13:14.529Z,10.40
2023-04-15T03:14:14.549Z,10.41
2023-04-15T03:15:14.567Z,10.40
2023-04-15T03:16:14.746Z,10.40
2023-04-15T03:17:14.724Z,10.40
2023-04-15T03:18:14.728Z,10.42
2023-04-15T03:19:14.789Z,10.38
2023-04-15T03:20:14.915Z,10.37
2023-04-15T03:21:14.928Z,10.37
2023-04-15T03:22:14.974Z,10.42
2023-04-15T03:23:15.040Z,10.45
2023-04-15T03:24:15.129Z,10.46
2023-04-15T03:25:15.123Z,10.45
2023-04-15T03:26:15.200Z,10.36
2023-04-15T03:27:15.201Z,10.36
2023-04-15T03:28:15.294Z,10.39
2023-04-15T03:29:15.313Z,10.40
2023-04-15T03:30:15.390Z,10.42
2023-04-15T03:31:15.598Z,10.45
2023-04-15T03:32:15.551Z,10.43
2023-04-15T03:33:15.630Z,10.41
2023-04-15T03:34:15.653Z,10.37
2023-04-15T03:35:15.689Z,10.35
2023-04-15T03:36:15.788Z,10.12
2023-04-15T03:37:15.820Z,9.69
2023-04-15T03:38:15.870Z,9.63
2023-04-15T03:39:15.892Z,9.64
2023-04-15T03:40:15.986Z,9.47
2023-04-15T03:41:16.007Z,9.42
2023-04-15T03:42:16.025Z,9.51
2023-04-15T03:43:16.035Z,9.50
2023-04-15T03:44:16.090Z,9.61
2023-04-15T03:45:16.150Z,9.58
2023-04-15T03:46:16.180Z,9.72
2023-04-15T03:47:16.185Z,9.77
2023-04-15T03:48:18.178Z,9.84
2023-04-15T03:49:16.261Z,9.94
2023-04-15T03:50:16.303Z,9.99
2023-04-15T03:51:16.373Z,10.02
2023-04-15T03:52:16.403Z,10.04
2023-04-15T03:53:16.407Z,10.08
2023-04-15T03:54:16.393Z,10.12
2023-04-15T03:55:16.433Z,10.11
2023-04-15T03:56:16.535Z,10.02
2023-04-15T03:57:16.554Z,10.05
2023-04-15T03:58:16.581Z,10.12
2023-04-15T03:59:16.620Z,10.14
2023-04-15T04:00:16.701Z,10.13
2023-04-15T04:01:16.773Z,10.14
2023-04-15T04:02:16.812Z,10.15
2023-04-15T04:03:16.860Z,10.01
2023-04-15T04:04:16.935Z,9.63
2023-04-15T04:05:16.813Z,9.39
2023-04-15T04:06:16.930Z,9.47
2023-04-15T04:07:16.910Z,9.64
2023-04-15T04:08:16.915Z,9.76
2023-04-15T04:09:16.901Z,9.84
2023-04-15T04:10:16.921Z,9.78
2023-04-15T04:11:16.941Z,9.61
2023-04-15T04:12:17.016Z,9.62
2023-04-15T04:13:16.959Z,9.71
2023-04-15T04:14:16.951Z,9.79
2023-04-15T04:15:16.968Z,9.85
2023-04-15T04:16:17.033Z,9.87
2023-04-15T04:17:17.047Z,9.88
2023-04-15T04:18:17.043Z,9.88
2023-04-15T04:19:17.064Z,9.82
2023-04-15T04:20:17.069Z,9.78
2023-04-15T04:21:17.161Z,9.77
2023-04-15T04:22:17.101Z,9.78
2023-04-15T04:23:17.135Z,9.81
2023-04-15T04:24:17.116Z,9.81
2023-04-15T04:25:17.147Z,9.71
2023-04-15T04:26:17.189Z,9.74
2023-04-15T04:27:17.203Z,9.39
2023-04-15T04:28:17.295Z,9.08
2023-04-15T04:29:17.324Z,9.07
2023-04-15T04:30:17.425Z,9.03
2023-04-15T04:31:17.490Z,8.89
2023-04-15T04:32:17.477Z,8.78
2023-04-15T04:33:17.551Z,8.82
2023-04-15T04:34:17.629Z,8.85
2023-04-15T04:35:17.657Z,9.01
2023-04-15T04:36:17.730Z,9.15
2023-04-15T04:37:17.739Z,9.22
2023-04-15T04:38:17.830Z,9.19
2023-04-15T04:39:17.835Z,9.17
2023-04-15T04:40:17.867Z,9.09
2023-04-15T04:41:17.967Z,8.99
2023-04-15T04:42:17.968Z,9.07
2023-04-15T04:43:18.039Z,9.14
2023-04-15T04:44:18.065Z,9.06
2023-04-15T04:45:18.094Z,8.95
2023-04-15T04:46:18.218Z,9.01
2023-04-15T04:47:18.205Z,9.06
2023-04-15T04:48:18.294Z,9.16
2023-04-15T04:49:18.346Z,9.14
2023-04-15T04:50:18.406Z,9.19
2023-04-15T04:51:18.431Z,9.31
2023-04-15T04:52:18.443Z,9.21
2023-04-15T04:53:18.586Z,9.09
2023-04-15T04:54:18.671Z,9.15
2023-04-15T04:55:18.662Z,9.23
2023-04-15T04:56:18.733Z,9.02
2023-04-15T04:57:18.731Z,8.72
2023-04-15T04:58:18.777Z,8.52
2023-04-15T04:59:19.491Z,8.39
2023-04-15T05:00:18.814Z,8.24
2023-04-15T05:01:18.874Z,8.24
2023-04-15T05:02:18.963Z,8.48
2023-04-15T05:03:19.067Z,8.44
2023-04-15T05:04:19.099Z,8.48
2023-04-15T05:05:18.865Z,8.67
2023-04-15T05:06:18.908Z,8.83
2023-04-15T05:07:18.921Z,8.94
2023-04-15T05:08:18.963Z,9.02
2023-04-15T05:09:19.002Z,9.12
2023-04-15T05:10:18.973Z,9.19
2023-04-15T05:11:18.980Z,9.27
2023-04-15T05:12:18.992Z,9.27
2023-04-15T05:13:18.993Z,9.24
2023-04-15T05:14:19.069Z,9.29
2023-04-15T05:15:19.048Z,9.40
2023-04-15T05:16:19.154Z,9.42
2023-04-15T05:17:19.048Z,9.41
2023-04-15T05:18:19.038Z,9.40
2023-04-15T05:19:19.143Z,9.36
2023-04-15T05:20:19.162Z,9.42
2023-04-15T05:21:19.218Z,9.48
2023-04-15T05:22:19.259Z,9.57
2023-04-15T05:23:19.243Z,9.49
2023-04-15T05:24:19.255Z,9.52
2023-04-15T05:25:19.278Z,9.53
2023-04-15T05:26:19.291Z,9.50
2023-04-15T05:27:19.298Z,9.54
2023-04-15T05:28:19.299Z,9.53
2023-04-15T05:29:19.317Z,9.63
2023-04-15T05:30:19.341Z,9.74
2023-04-15T05:31:19.440Z,9.80
2023-04-15T05:32:19.396Z,9.84
2023-04-15T05:33:19.396Z,9.83
2023-04-15T05:34:19.358Z,9.78
2023-04-15T05:35:19.359Z,9.79
2023-04-15T05:36:19.375Z,9.83
2023-04-15T05:37:19.341Z,9.93
2023-04-15T05:38:19.398Z,9.88
2023-04-15T05:39:19.410Z,9.96
2023-04-15T05:40:19.444Z,9.77
2023-04-15T05:41:19.990Z,9.39
2023-04-15T05:42:19.444Z,9.32
2023-04-15T05:43:19.482Z,9.11
2023-04-15T05:44:19.487Z,8.95
2023-04-15T05:45:19.550Z,9.09
2023-04-15T05:46:19.706Z,9.24
2023-04-15T05:47:19.702Z,9.15
2023-04-15T05:48:19.769Z,9.21
2023-04-15T05:49:19.801Z,9.19
2023-04-15T05:50:19.870Z,9.33
2023-04-15T05:51:19.943Z,9.43
2023-04-15T05:52:19.959Z,9.58
2023-04-15T05:53:20.056Z,9.73
2023-04-15T05:54:20.347Z,9.79
2023-04-15T05:55:20.163Z,9.74
2023-04-15T05:56:20.227Z,9.69
2023-04-15T05:57:20.229Z,9.42
2023-04-15T05:58:20.275Z,9.21
2023-04-15T05:59:20.322Z,9.02
2023-04-15T06:00:20.373Z,9.20
2023-04-15T06:01:20.438Z,9.38
2023-04-15T06:02:20.651Z,9.53
2023-04-15T06:03:20.607Z,9.69
2023-04-15T06:04:20.633Z,9.70
2023-04-15T06:05:20.639Z,9.64
2023-04-15T06:06:20.692Z,9.54
2023-04-15T06:07:20.712Z,9.56
2023-04-15T06:08:20.730Z,9.71
2023-04-15T06:09:20.760Z,9.88
2023-04-15T06:10:20.808Z,9.93
2023-04-15T06:11:20.909Z,9.99
2023-04-15T06:12:20.849Z,10.07
2023-04-15T06:13:20.921Z,10.18
2023-04-15T06:14:20.903Z,10.26
2023-04-15T06:15:20.967Z,10.17
2023-04-15T06:16:21.023Z,10.13
2023-04-15T06:17:21.048Z,9.91
2023-04-15T06:18:21.038Z,9.84
2023-04-15T06:19:21.105Z,9.67
2023-04-15T06:20:21.048Z,9.72
2023-04-15T06:21:21.109Z,9.67
2023-04-15T06:22:21.056Z,9.67
2023-04-15T06:23:21.043Z,9.70
2023-04-15T06:24:21.063Z,9.50
2023-04-15T06:25:21.040Z,9.65
2023-04-15T06:26:21.064Z,9.92
2023-04-15T06:27:21.055Z,10.11
2023-04-15T06:28:21.081Z,10.21
2023-04-15T06:29:21.029Z,10.04
2023-04-15T06:30:22.937Z,9.98
2023-04-15T06:31:21.057Z,9.95
2023-04-15T06:32:21.054Z,10.12
2023-04-15T06:33:21.208Z,10.27
2023-04-15T06:34:20.981Z,10.43
2023-04-15T06:35:20.966Z,10.37
2023-04-15T06:36:21.001Z,10.22
2023-04-15T06:37:20.944Z,10.27
2023-04-15T06:38:20.993Z,10.38
2023-04-15T06:39:20.958Z,10.48
2023-04-15T06:40:20.959Z,10.59
2023-04-15T06:41:20.961Z,10.69
2023-04-15T06:42:20.976Z,10.40
2023-04-15T06:43:20.997Z,10.41
2023-04-15T06:44:20.914Z,10.50
2023-04-15T06:45:20.893Z,10.58
2023-04-15T06:46:21.370Z,10.71
2023-04-15T06:47:20.899Z,10.85
2023-04-15T06:48:20.900Z,10.87
2023-04-15T06:49:20.875Z,10.89
2023-04-15T06:50:20.885Z,10.80
2023-04-15T06:51:20.878Z,10.80
2023-04-15T06:52:20.879Z,10.62
2023-04-15T06:53:20.857Z,10.61
2023-04-15T06:54:20.836Z,10.69
2023-04-15T06:55:20.833Z,10.54
2023-04-15T06:56:20.872Z,10.24
2023-04-15T06:57:20.880Z,10.35
2023-04-15T06:58:20.897Z,10.50
2023-04-15T06:59:20.804Z,10.50
2023-04-15T07:00:20.807Z,10.45
2023-04-15T07:01:21.657Z,10.58
2023-04-15T07:02:20.860Z,10.66
2023-04-15T07:03:20.771Z,10.42
2023-04-15T07:04:20.869Z,10.21
2023-04-15T07:05:20.777Z,10.06
2023-04-15T07:06:20.800Z,10.01
2023-04-15T07:07:20.760Z,10.07
2023-04-15T07:08:20.847Z,10.29
2023-04-15T07:09:20.702Z,10.24
2023-04-15T07:10:20.762Z,10.14
2023-04-15T07:11:20.727Z,10.07
2023-04-15T07:12:20.730Z,9.95
2023-04-15T07:13:20.688Z,10.13
2023-04-15T07:14:20.708Z,10.08
2023-04-15T07:15:20.732Z,10.12
2023-04-15T07:16:20.834Z,10.29
2023-04-15T07:17:20.695Z,10.29
2023-04-15T07:18:20.673Z,10.48
2023-04-15T07:19:20.667Z,10.63
2023-04-15T07:20:20.694Z,10.31
2023-04-15T07:21:20.706Z,10.09
2023-04-15T07:22:20.666Z,10.02
2023-04-15T07:23:20.762Z,10.26
2023-04-15T07:24:20.599Z,10.49
2023-04-15T07:25:20.635Z,10.71
2023-04-15T07:26:20.652Z,10.90
2023-04-15T07:27:20.604Z,11.09
2023-04-15T07:28:20.607Z,11.26
2023-04-15T07:29:20.594Z,11.32
2023-04-15T07:30:20.666Z,11.33
2023-04-15T07:31:20.718Z,11.03
2023-04-15T07:32:20.726Z,10.71
2023-04-15T07:33:20.687Z,10.78
2023-04-15T07:34:20.686Z,11.02
2023-04-15T07:35:20.703Z,11.25
2023-04-15T07:36:20.712Z,11.45
2023-04-15T07:37:20.874Z,11.62
2023-04-15T07:38:20.761Z,11.64
2023-04-15T07:39:20.773Z,11.75
2023-04-15T07:40:20.837Z,11.68
2023-04-15T07:41:20.888Z,11.45
2023-04-15T07:42:21.911Z,11.07
2023-04-15T07:43:21.019Z,10.92
2023-04-15T07:44:21.257Z,10.95
2023-04-15T07:45:21.091Z,11.04
2023-04-15T07:46:21.229Z,10.99
2023-04-15T07:47:21.172Z,10.71
2023-04-15T07:48:21.222Z,10.55
2023-04-15T07:49:21.322Z,10.46
2023-04-15T07:50:21.340Z,10.61
2023-04-15T07:51:21.373Z,10.95
2023-04-15T07:52:21.385Z,11.23
2023-04-15T07:53:21.393Z,11.34
2023-04-15T07:54:21.382Z,11.29
2023-04-15T07:55:21.450Z,11.33
2023-04-15T07:56:21.467Z,11.53
2023-04-15T07:57:21.478Z,11.69
2023-04-15T07:58:21.482Z,11.82
2023-04-15T07:59:21.574Z,11.92
2023-04-15T08:00:21.590Z,12.08
2023-04-15T08:01:21.622Z,12.25
2023-04-15T08:02:21.794Z,12.36
2023-04-15T08:03:21.728Z,12.32
2023-04-15T08:04:21.935Z,12.19
2023-04-15T08:05:21.807Z,12.08
2023-04-15T08:06:21.859Z,12.03
2023-04-15T08:07:21.942Z,12.17
2023-04-15T08:08:21.898Z,12.08
2023-04-15T08:09:21.970Z,12.00
2023-04-15T08:10:22.019Z,12.01
2023-04-15T08:11:22.019Z,12.13
2023-04-15T08:12:22.062Z,11.97
2023-04-15T08:13:22.034Z,11.79
2023-04-15T08:14:22.062Z,11.91
2023-04-15T08:15:22.093Z,11.92
2023-04-15T08:16:22.169Z,11.69
2023-04-15T08:17:22.172Z,11.87
2023-04-15T08:18:22.181Z,11.99
2023-04-15T08:19:22.192Z,12.01
2023-04-15T08:20:22.253Z,11.99
2023-04-15T08:21:22.276Z,12.19
2023-04-15T08:22:22.453Z,12.30
2023-04-15T08:23:22.314Z,12.04
2023-04-15T08:24:22.391Z,11.70
2023-04-15T08:25:22.443Z,11.57
2023-04-15T08:26:22.501Z,11.31
2023-04-15T08:27:22.497Z,11.32
2023-04-15T08:28:22.538Z,11.50
2023-04-15T08:29:22.566Z,11.75
2023-04-15T08:30:22.629Z,11.61
2023-04-15T08:31:22.733Z,11.46
2023-04-15T08:32:22.770Z,11.28
2023-04-15T08:33:22.665Z,11.32
2023-04-15T08:34:22.694Z,11.55
2023-04-15T08:35:22.717Z,11.46
2023-04-15T08:36:22.685Z,11.24
2023-04-15T08:37:22.683Z,11.20
2023-04-15T08:38:22.678Z,11.29
2023-04-15T08:39:22.698Z,11.40
2023-04-15T08:40:22.701Z,11.56
2023-04-15T08:41:22.724Z,11.75
2023-04-15T08:42:22.702Z,12.00
2023-04-15T08:43:22.710Z,12.24
2023-04-15T08:44:22.729Z,12.47
2023-04-15T08:45:22.743Z,12.61
2023-04-15T08:46:22.836Z,12.53
2023-04-15T08:47:22.894Z,12.63
2023-04-15T08:48:22.825Z,12.86
2023-04-15T08:49:22.861Z,12.94
2023-04-15T08:50:22.909Z,12.87
2023-04-15T08:51:24.560Z,12.98
2023-04-15T08:52:23.648Z,13.01
2023-04-15T08:53:23.018Z,13.10
2023-04-15T08:54:22.995Z,13.12
2023-04-15T08:55:22.957Z,13.15
2023-04-15T08:56:22.939Z,13.16
2023-04-15T08:57:22.956Z,13.17
2023-04-15T08:58:22.983Z,13.23
2023-04-15T08:59:23.004Z,13.27
2023-04-15T09:00:23.047Z,13.30
2023-04-15T09:01:23.171Z,13.25
2023-04-15T09:02:23.217Z,13.10
2023-04-15T09:03:23.274Z,13.09
2023-04-15T09:04:23.284Z,12.78
2023-04-15T09:05:24.059Z,12.78
2023-04-15T09:06:23.322Z,12.93
2023-04-15T09:07:23.335Z,13.05
2023-04-15T09:08:23.505Z,13.10
2023-04-15T09:09:23.324Z,12.96
2023-04-15T09:10:23.303Z,12.90
2023-04-15T09:11:23.325Z,12.68
2023-04-15T09:12:23.336Z,12.52
2023-04-15T09:13:23.245Z,12.74
2023-04-15T09:14:23.251Z,12.92
2023-04-15T09:15:23.265Z,13.03
2023-04-15T09:16:23.283Z,12.82
2023-04-15T09:17:23.286Z,12.90
2023-04-15T09:18:23.323Z,13.04
2023-04-15T09:19:23.246Z,13.18
2023-04-15T09:20:23.229Z,13.36
2023-04-15T09:21:23.203Z,13.48
2023-04-15T09:22:23.270Z,13.60
2023-04-15T09:23:23.290Z,13.49
2023-04-15T09:24:23.315Z,13.16
2023-04-15T09:25:23.283Z,13.09
2023-04-15T09:26:23.385Z,12.99
2023-04-15T09:27:23.348Z,13.22
2023-04-15T09:28:23.448Z,13.47
2023-04-15T09:29:23.437Z,13.63
2023-04-15T09:30:23.440Z,13.68
2023-04-15T09:31:23.535Z,13.57
2023-04-15T09:32:23.592Z,13.50
2023-04-15T09:33:23.521Z,13.76
2023-04-15T09:34:23.555Z,13.92
2023-04-15T09:35:23.537Z,13.95
2023-04-15T09:36:23.552Z,14.03
2023-04-15T09:37:32.086Z,13.74
2023-04-15T09:38:24.608Z,13.69
2023-04-15T09:39:23.593Z,13.78
2023-04-15T09:40:23.541Z,13.92
2023-04-15T09:41:23.561Z,14.09
2023-04-15T09:42:23.551Z,14.17
2023-04-15T09:43:23.545Z,14.07
2023-04-15T09:44:23.509Z,14.16
2023-04-15T09:45:24.520Z,14.18
2023-04-15T09:46:23.595Z,14.19
2023-04-15T09:47:23.506Z,14.31
2023-04-15T09:48:23.479Z,14.32
2023-04-15T09:49:23.495Z,14.44
2023-04-15T09:50:23.452Z,14.47
2023-04-15T09:51:23.551Z,14.44
2023-04-15T09:52:23.576Z,14.47
2023-04-15T09:53:23.576Z,14.31
2023-04-15T09:54:23.597Z,14.18
2023-04-15T09:55:23.663Z,13.82
2023-04-15T09:56:23.724Z,13.69
2023-04-15T09:57:23.710Z,13.68
2023-04-15T09:58:23.679Z,13.84
2023-04-15T09:59:23.669Z,13.88
2023-04-15T10:00:23.728Z,13.72
2023-04-15T10:01:23.825Z,13.77
2023-04-15T10:02:23.931Z,13.70
2023-04-15T10:03:24.059Z,13.72
2023-04-15T10:04:23.930Z,13.85
2023-04-15T10:05:23.837Z,13.94
2023-04-15T10:06:23.826Z,14.04
2023-04-15T10:07:23.895Z,14.16
2023-04-15T10:08:23.971Z,14.22
2023-04-15T10:09:23.946Z,14.22
2023-04-15T10:10:23.955Z,14.26
2023-04-15T10:11:24.049Z,14.30
2023-04-15T10:12:24.118Z,14.09
2023-04-15T10:13:24.143Z,13.79
2023-04-15T10:14:24.151Z,13.78
2023-04-15T10:15:24.093Z,13.99
2023-04-15T10:16:24.174Z,14.10
2023-04-15T10:17:24.239Z,14.14
2023-04-15T10:18:24.255Z,14.18
2023-04-15T10:19:24.290Z,14.21
2023-04-15T10:20:24.285Z,14.23
2023-04-15T10:21:24.305Z,14.29
2023-04-15T10:22:24.328Z,14.32
2023-04-15T10:23:24.329Z,14.41
2023-04-15T10:24:24.318Z,14.43
2023-04-15T10:25:24.341Z,14.54
2023-04-15T10:26:24.414Z,14.47
2023-04-15T10:27:24.465Z,14.36
2023-04-15T10:28:24.447Z,13.89
2023-04-15T10:29:24.452Z,13.55
2023-04-15T10:30:24.517Z,13.63
2023-04-15T10:31:24.555Z,13.92
2023-04-15T10:32:24.627Z,13.99
2023-04-15T10:33:24.567Z,14.17
2023-04-15T10:34:24.644Z,14.49
2023-04-15T10:35:24.643Z,14.67
2023-04-15T10:36:24.679Z,14.90
2023-04-15T10:37:24.780Z,15.02
2023-04-15T10:38:24.714Z,15.16
2023-04-15T10:39:24.742Z,15.12
2023-04-15T10:40:24.770Z,14.85
2023-04-15T10:41:24.853Z,14.75
2023-04-15T10:42:24.892Z,14.64
2023-04-15T10:43:24.855Z,14.34
2023-04-15T10:44:24.908Z,14.25
2023-04-15T10:45:24.900Z,14.28
2023-04-15T10:46:25.035Z,14.24
2023-04-15T10:47:25.086Z,14.12
2023-04-15T10:48:25.086Z,14.17
2023-04-15T10:49:25.117Z,14.41
2023-04-15T10:50:25.160Z,14.55
2023-04-15T10:51:25.162Z,14.80
2023-04-15T10:52:25.271Z,14.94
2023-04-15T10:53:25.232Z,15.01
2023-04-15T10:54:25.315Z,14.99
2023-04-15T10:55:25.316Z,14.90
2023-04-15T10:56:25.385Z,14.97
2023-04-15T10:57:25.475Z,15.04
2023-04-15T10:58:25.489Z,15.19
2023-04-15T10:59:25.532Z,15.29
2023-04-15T11:00:25.655Z,15.22
2023-04-15T11:01:25.644Z,15.00
2023-04-15T11:02:26.397Z,15.05
2023-04-15T11:03:25.746Z,14.96
2023-04-15T11:04:27.024Z,15.06
2023-04-15T11:05:25.782Z,15.00
2023-04-15T11:06:25.828Z,14.66
2023-04-15T11:07:25.837Z,14.55
2023-04-15T11:08:25.836Z,14.45
2023-04-15T11:09:25.882Z,14.50
2023-04-15T11:10:26.005Z,14.79
2023-04-15T11:11:25.982Z,15.06
2023-04-15T11:12:25.985Z,15.26
2023-04-15T11:13:25.932Z,15.47
2023-04-15T11:14:26.087Z,15.41
2023-04-15T11:15:26.018Z,15.44
2023-04-15T11:16:26.155Z,15.57
2023-04-15T11:17:26.136Z,15.64
2023-04-15T11:18:26.126Z,15.56
2023-04-15T11:19:26.207Z,15.62
2023-04-15T11:20:26.235Z,15.30
2023-04-15T11:21:26.286Z,14.92
2023-04-15T11:22:26.301Z,15.11
2023-04-15T11:23:26.269Z,15.34
2023-04-15T11:24:26.309Z,15.51
2023-04-15T11:25:26.366Z,15.86
2023-04-15T11:26:26.425Z,15.92
2023-04-15T11:27:26.423Z,15.98
2023-04-15T11:28:26.448Z,15.96
2023-04-15T11:29:26.525Z,15.70
2023-04-15T11:30:26.507Z,15.80
2023-04-15T11:31:26.596Z,15.78
2023-04-15T11:32:26.560Z,15.74
2023-04-15T11:33:26.540Z,15.82
2023-04-15T11:34:26.620Z,15.62
2023-04-15T11:35:26.667Z,15.72
2023-04-15T11:36:27.055Z,15.62
2023-04-15T11:37:26.715Z,15.56
2023-04-15T11:38:26.727Z,15.60
2023-04-15T11:39:26.774Z,15.65
2023-04-15T11:40:26.811Z,15.58
2023-04-15T11:41:26.812Z,15.56
2023-04-15T11:42:31.450Z,15.41
2023-04-15T11:43:27.852Z,15.24
2023-04-15T11:44:26.911Z,15.35
2023-04-15T11:45:26.878Z,15.39
2023-04-15T11:46:26.794Z,15.55
2023-04-15T11:47:26.827Z,15.60
2023-04-15T11:48:26.794Z,15.59
2023-04-15T11:49:26.802Z,15.61
2023-04-15T11:50:26.773Z,15.61
2023-04-15T11:51:26.864Z,15.51
2023-04-15T11:52:26.786Z,15.17
2023-04-15T11:53:26.760Z,15.09
2023-04-15T11:54:26.779Z,15.21
2023-04-15T11:55:26.768Z,15.24
2023-04-15T11:56:26.799Z,14.52
2023-04-15T11:57:26.726Z,14.14
2023-04-15T11:58:26.769Z,14.22
2023-04-15T11:59:38.999Z,14.35
2023-04-15T12:00:27.818Z,14.43
2023-04-15T12:01:26.799Z,14.42
2023-04-15T12:02:26.890Z,14.47
2023-04-15T12:03:26.875Z,14.34
2023-04-15T12:04:26.955Z,14.48
2023-04-15T12:05:26.803Z,14.54
2023-04-15T12:06:26.793Z,14.49
2023-04-15T12:07:26.759Z,14.41
2023-04-15T12:08:26.798Z,14.49
2023-04-15T12:09:26.731Z,14.54
2023-04-15T12:10:26.745Z,14.43
2023-04-15T12:11:26.724Z,14.53
2023-04-15T12:12:26.790Z,14.80
2023-04-15T12:13:26.753Z,14.96
2023-04-15T12:14:26.882Z,15.07
2023-04-15T12:15:26.900Z,15.23
2023-04-15T12:16:26.910Z,15.29
2023-04-15T12:17:27.085Z,15.28
2023-04-15T12:18:26.996Z,15.17
2023-04-15T12:19:27.081Z,15.21
2023-04-15T12:20:27.082Z,15.35
2023-04-15T12:21:27.157Z,15.37
2023-04-15T12:22:27.134Z,15.46
2023-04-15T12:23:27.182Z,15.59
2023-04-15T12:24:27.223Z,15.62
2023-04-15T12:25:27.237Z,15.63
2023-04-15T12:26:27.275Z,15.57
2023-04-15T12:27:29.632Z,15.55
2023-04-15T12:28:27.509Z,15.59
2023-04-15T12:29:27.425Z,15.67
2023-04-15T12:30:27.511Z,15.76
2023-04-15T12:31:27.585Z,15.47
2023-04-15T12:32:27.576Z,15.39
2023-04-15T12:33:27.607Z,15.35
2023-04-15T12:34:27.625Z,15.40
2023-04-15T12:35:27.581Z,15.44
2023-04-15T12:36:27.600Z,15.36
2023-04-15T12:37:28.064Z,15.07
2023-04-15T12:38:27.665Z,14.84
2023-04-15T12:39:29.261Z,14.89
2023-04-15T12:40:27.697Z,14.94
2023-04-15T12:41:27.705Z,14.87
2023-04-15T12:42:27.733Z,14.99
2023-04-15T12:43:27.756Z,15.09
2023-04-15T12:44:27.715Z,14.96
2023-04-15T12:45:29.490Z,15.02
2023-04-15T12:46:27.694Z,15.05
2023-04-15T12:47:27.761Z,15.03
2023-04-15T12:48:27.754Z,15.11
2023-04-15T12:49:27.720Z,14.86
2023-04-15T12:50:27.806Z,14.93
2023-04-15T12:51:28.127Z,14.72
2023-04-15T12:52:27.842Z,14.75
2023-04-15T12:53:27.832Z,14.82
2023-04-15T12:54:27.900Z,14.86
2023-04-15T12:55:27.935Z,14.94
2023-04-15T12:56:27.958Z,14.87
2023-04-15T12:57:28.029Z,14.81
2023-04-15T12:58:28.280Z,14.91
2023-04-15T12:59:28.029Z,14.89
2023-04-15T13:00:28.060Z,14.89
2023-04-15T13:01:28.138Z,14.68